ASN logo
Last updated: 23 January 2022
Statuts:Enquête Préliminaire
Date:lundi 27 septembre 2021
Heure:16:28
Type/Sous-type:Silhouette image of generic B752 model; specific model in this crash may look slightly different
Boeing 757-224 (WL)
Compagnie:United Airlines
Immatriculation: N12125
Numéro de série: 28967/788
Année de Fabrication: 1998-01-18 (23 years 9 months)
Moteurs: 2 Rolls-Royce RB211-535E4B
Equipage:victimes: 0 / à bord: 6
Passagers:victimes: 0 / à bord: 166
Total:victimes: 0 / à bord: 172
Dégats de l'appareil: Substantiels
Lieu de l'accident:Denver International Airport, CO (DEN) (   Etats-Unis d'Amérique)
Phase de vol: Au décollage (TOF)
Nature:Transport de Passagers Nat.
Aéroport de départ:Denver International Airport, CO (DEN/KDEN), Etats-Unis d'Amérique
Aéroport de destination:Newark-Liberty International Airport, NJ (EWR/KEWR), Etats-Unis d'Amérique
Numéro de vol:UA1117
Détails:
United Airlines flight 1117, a Boeing 757-224, suffered a tailstrike on takeoff from runway 08 at Denver International Airport, Colorado, USA.
The damage was discovered after landing at Newark, New Jersey.

Accident investigation:
Investigating agency: NTSB
Status: Investigation ongoing
Accident number: DCA22LA002

Sources:
» NTSB

METAR Weather report:
21:53 UTC / 15:53 local time:
KDEN 272153Z 08011G17KT 10SM SCT100 SCT160 SCT220 32/M03 A2997 RMK AO2 SLP064 T03171033

22:53 UTC / 16:53 local time:
KDEN 272253Z 10010KT 10SM FEW100 SCT160 SCT220 31/M03 A2997 RMK AO2 SLP066 T03061033


Photos

Add your photo of this accident or aircraft

Plan
This map shows the airport of departure and the intended destination of the flight. The line is connecting ADS-B datapoints from FlightAware.
La distance entre Denver International Airport, CO et Newark-Liberty International Airport, NJ est de 2559 km (1599 miles).
Accident location: Approximate; accuracy within a few kilometers.

Les informations ci-dessus ne représentent pas l'opinion de la 'Flight Safety Foundation' ou de 'Aviation Safety Network' sur les causes de l'accident. Ces informations prélimimaires sont basées sur les faits tel qu'ils sont connus à ce jour.
languages: languages

Share